createdAt,value
2023-05-17T00:01:34.048Z,5.22
2023-05-17T00:04:38.526Z,4.35
2023-05-17T00:07:42.947Z,4.00
2023-05-17T00:10:47.431Z,3.60
2023-05-17T00:13:52.051Z,2.80
2023-05-17T00:16:56.506Z,3.50
2023-05-17T00:20:00.756Z,4.00
2023-05-17T00:23:05.145Z,3.40
2023-05-17T00:26:09.562Z,4.00
2023-05-17T00:29:14.287Z,5.10
2023-05-17T00:32:20.590Z,4.30
2023-05-17T00:35:25.291Z,3.88
2023-05-17T00:41:34.148Z,3.30
2023-05-17T00:44:38.557Z,3.40
2023-05-17T00:47:43.130Z,3.50
2023-05-17T00:50:48.443Z,4.22
2023-05-17T00:53:53.239Z,3.97
2023-05-17T00:57:00.301Z,3.65
2023-05-17T01:00:05.383Z,3.35
2023-05-17T01:03:10.064Z,3.72
2023-05-17T01:06:14.903Z,3.78
2023-05-17T01:12:51.979Z,4.60
2023-05-17T01:16:16.180Z,3.08
2023-05-17T01:19:49.248Z,3.58
2023-05-17T01:23:15.690Z,3.75
2023-05-17T01:26:49.004Z,3.70
2023-05-17T01:29:57.012Z,4.07
2023-05-17T01:33:04.209Z,3.67
2023-05-17T01:36:08.787Z,5.25
2023-05-17T01:42:22.809Z,4.30
2023-05-17T01:45:33.458Z,4.35
2023-05-17T01:48:44.946Z,4.88
2023-05-17T01:52:02.685Z,3.97
2023-05-17T01:55:30.929Z,4.40
2023-05-17T01:58:47.468Z,4.80
2023-05-17T02:02:07.267Z,4.40
2023-05-17T02:05:13.224Z,2.72
2023-05-17T02:08:18.124Z,3.45
2023-05-17T02:14:30.111Z,4.22
2023-05-17T02:17:34.578Z,4.85
2023-05-17T02:20:38.985Z,3.55
2023-05-17T02:23:43.225Z,5.03
2023-05-17T02:26:48.533Z,4.05
2023-05-17T02:29:52.708Z,5.13
2023-05-17T02:32:58.275Z,5.22
2023-05-17T02:36:02.480Z,4.10
2023-05-17T02:39:07.043Z,5.97
2023-05-17T02:42:11.533Z,3.95
2023-05-17T02:45:16.233Z,3.22
2023-05-17T02:51:25.531Z,4.07
2023-05-17T02:54:30.081Z,3.33
2023-05-17T02:57:34.528Z,3.67
2023-05-17T03:00:38.833Z,3.58
2023-05-17T03:03:43.399Z,3.78
2023-05-17T03:06:48.505Z,4.55
2023-05-17T03:09:53.123Z,4.80
2023-05-17T03:16:09.430Z,3.40
2023-05-17T03:19:14.042Z,2.75
2023-05-17T03:22:20.331Z,3.70
2023-05-17T03:25:24.533Z,3.30
2023-05-17T03:28:29.054Z,3.13
2023-05-17T03:31:34.098Z,3.33
2023-05-17T03:34:38.819Z,3.22
2023-05-17T03:37:43.218Z,3.28
2023-05-17T03:40:47.678Z,2.58
2023-05-17T03:43:51.873Z,3.50
2023-05-17T03:47:00.351Z,3.58
2023-05-17T03:50:06.521Z,2.15
2023-05-17T03:53:11.416Z,2.50
2023-05-17T03:56:17.990Z,2.55
2023-05-17T03:59:22.703Z,2.45
2023-05-17T04:02:27.079Z,1.65
2023-05-17T04:05:31.591Z,2.72
2023-05-17T04:08:36.315Z,1.48
2023-05-17T04:11:41.079Z,3.13
2023-05-17T04:14:45.466Z,2.55
2023-05-17T04:17:51.350Z,2.90
2023-05-17T04:24:02.219Z,2.08
2023-05-17T04:27:07.210Z,3.05
2023-05-17T04:30:13.184Z,1.88
2023-05-17T04:33:18.385Z,1.80
2023-05-17T04:36:22.718Z,2.92
2023-05-17T04:39:28.833Z,3.38
2023-05-17T04:42:35.679Z,2.28
2023-05-17T04:45:41.282Z,2.67
2023-05-17T04:48:45.889Z,2.85
2023-05-17T04:51:51.133Z,2.33
2023-05-17T04:54:55.942Z,2.13
2023-05-17T04:58:01.058Z,2.97
2023-05-17T05:01:06.030Z,1.95
2023-05-17T05:04:11.706Z,1.73
2023-05-17T05:07:20.348Z,1.67
2023-05-17T05:10:25.483Z,1.90
2023-05-17T05:13:29.928Z,1.40
2023-05-17T05:16:34.132Z,2.20
2023-05-17T05:19:39.220Z,2.20
2023-05-17T05:22:44.772Z,1.42
2023-05-17T05:25:49.969Z,1.70
2023-05-17T05:28:55.575Z,1.95
2023-05-17T05:32:00.072Z,1.80
2023-05-17T05:35:05.690Z,1.50
2023-05-17T05:38:10.129Z,1.65
2023-05-17T05:41:14.367Z,1.83
2023-05-17T05:44:19.253Z,0.98
2023-05-17T05:47:24.203Z,1.13
2023-05-17T05:50:28.827Z,1.63
2023-05-17T05:53:41.300Z,1.67
2023-05-17T05:56:46.480Z,1.67
2023-05-17T05:59:53.397Z,1.27
2023-05-17T06:02:57.818Z,1.70
2023-05-17T06:06:02.103Z,1.48
2023-05-17T06:12:12.178Z,1.67
2023-05-17T06:15:16.595Z,1.60
2023-05-17T06:18:21.162Z,2.55
2023-05-17T06:24:30.636Z,1.02
2023-05-17T06:27:35.100Z,1.50
2023-05-17T06:30:39.592Z,2.40
2023-05-17T06:33:44.025Z,1.55
2023-05-17T06:36:48.564Z,1.30
2023-05-17T06:40:00.174Z,1.60
2023-05-17T06:43:13.938Z,1.23
2023-05-17T06:46:18.346Z,0.77
2023-05-17T06:49:22.716Z,1.65
2023-05-17T06:52:27.250Z,1.60
2023-05-17T06:55:32.043Z,1.58
2023-05-17T06:58:36.690Z,1.85
2023-05-17T07:01:41.172Z,0.50
2023-05-17T07:04:46.131Z,1.48
2023-05-17T07:07:50.890Z,1.02
2023-05-17T07:10:55.203Z,1.05
2023-05-17T07:13:59.557Z,1.65
2023-05-17T07:17:04.060Z,1.00
2023-05-17T07:20:08.884Z,1.10
2023-05-17T07:26:21.169Z,1.50
2023-05-17T07:29:25.666Z,3.03
2023-05-17T07:32:30.060Z,0.40
2023-05-17T07:35:34.351Z,0.63
2023-05-17T07:38:38.937Z,1.85
2023-05-17T07:41:43.440Z,1.05
2023-05-17T07:44:49.991Z,1.40
2023-05-17T07:47:55.108Z,0.73
2023-05-17T07:50:59.905Z,0.93
2023-05-17T07:54:04.338Z,0.95
2023-05-17T08:00:14.504Z,1.20
2023-05-17T08:03:19.078Z,0.95
2023-05-17T08:06:25.673Z,1.02
2023-05-17T08:09:29.960Z,1.75
2023-05-17T08:12:34.375Z,0.90
2023-05-17T08:15:38.932Z,1.23
2023-05-17T08:18:43.926Z,0.70
2023-05-17T08:21:49.310Z,1.00
2023-05-17T08:24:53.683Z,0.70
2023-05-17T08:27:58.138Z,1.23
2023-05-17T08:31:04.378Z,1.35
2023-05-17T08:34:09.137Z,0.75
2023-05-17T08:37:14.577Z,1.27
2023-05-17T08:43:27.809Z,0.80
2023-05-17T08:46:33.584Z,1.02
2023-05-17T08:49:39.434Z,0.77
2023-05-17T08:52:46.373Z,0.70
2023-05-17T08:55:51.222Z,0.75
2023-05-17T08:58:59.094Z,0.65
2023-05-17T09:02:05.127Z,1.13
2023-05-17T09:05:10.757Z,1.00
2023-05-17T09:08:15.582Z,1.13
2023-05-17T09:11:28.371Z,2.50
2023-05-17T09:14:36.922Z,1.10
2023-05-17T09:17:42.074Z,0.43
2023-05-17T09:20:52.767Z,0.93
2023-05-17T09:24:06.215Z,1.90
2023-05-17T09:27:18.014Z,0.50
2023-05-17T09:30:33.350Z,1.30
2023-05-17T09:36:52.216Z,0.65
2023-05-17T09:43:02.231Z,0.43
2023-05-17T09:46:06.767Z,0.60
2023-05-17T09:49:11.063Z,0.70
2023-05-17T09:52:19.431Z,0.77
2023-05-17T09:55:27.658Z,0.88
2023-05-17T09:58:33.622Z,1.60
2023-05-17T10:01:41.333Z,0.88
2023-05-17T10:04:49.310Z,0.55
2023-05-17T10:07:56.397Z,1.10
2023-05-17T10:11:10.225Z,0.60
2023-05-17T10:14:32.352Z,0.90
2023-05-17T10:17:39.173Z,0.75
2023-05-17T10:20:44.269Z,0.98
2023-05-17T10:23:49.286Z,0.57
2023-05-17T10:26:54.148Z,0.70
2023-05-17T10:29:59.780Z,1.00
2023-05-17T10:33:04.795Z,0.82
2023-05-17T10:36:10.967Z,0.47
2023-05-17T10:39:16.602Z,0.95
2023-05-17T10:42:22.211Z,0.68
2023-05-17T10:45:27.807Z,0.82
2023-05-17T10:48:33.259Z,0.50
2023-05-17T10:51:37.992Z,0.35
2023-05-17T10:54:44.781Z,0.85
2023-05-17T10:58:16.735Z,0.40
2023-05-17T11:01:54.467Z,0.40
2023-05-17T11:05:00.508Z,0.40
2023-05-17T11:08:18.472Z,1.27
2023-05-17T11:11:22.915Z,1.05
2023-05-17T11:17:42.903Z,0.52
2023-05-17T11:21:07.709Z,1.05
2023-05-17T11:24:22.064Z,0.60
2023-05-17T11:27:28.886Z,0.70
2023-05-17T11:30:34.005Z,1.05
2023-05-17T11:33:46.159Z,0.50
2023-05-17T11:36:55.183Z,0.73
2023-05-17T11:40:08.494Z,1.00
2023-05-17T11:43:13.845Z,0.70
2023-05-17T11:46:20.601Z,0.40
2023-05-17T11:49:34.845Z,0.65
2023-05-17T11:52:41.551Z,0.30
2023-05-17T11:55:51.626Z,0.38
2023-05-17T11:58:56.425Z,0.38
2023-05-17T12:02:01.174Z,0.70
2023-05-17T12:05:05.836Z,0.52
2023-05-17T12:08:10.625Z,0.60
2023-05-17T12:11:17.382Z,0.60
2023-05-17T12:14:22.416Z,0.57
2023-05-17T12:17:35.188Z,0.70
2023-05-17T12:20:52.465Z,0.40
2023-05-17T12:23:57.132Z,0.73
2023-05-17T12:27:02.058Z,0.57
2023-05-17T12:30:16.246Z,0.60
2023-05-17T12:33:21.102Z,0.47
2023-05-17T12:36:28.600Z,0.45
2023-05-17T12:39:33.040Z,0.88
2023-05-17T12:42:37.613Z,0.40
2023-05-17T12:48:48.032Z,0.32
2023-05-17T12:51:52.814Z,0.30
2023-05-17T12:54:59.429Z,0.13
2023-05-17T12:58:07.158Z,0.30
2023-05-17T13:01:14.476Z,0.45
2023-05-17T13:04:20.435Z,0.57
2023-05-17T13:07:25.355Z,0.60
2023-05-17T13:13:34.337Z,0.20
2023-05-17T13:16:39.662Z,0.85
2023-05-17T13:19:44.062Z,0.22
2023-05-17T13:22:49.786Z,0.35
2023-05-17T13:25:54.549Z,1.02
2023-05-17T13:32:03.760Z,0.60
2023-05-17T13:35:09.024Z,0.32
2023-05-17T13:38:13.570Z,0.75
2023-05-17T13:41:18.128Z,0.40
2023-05-17T13:47:29.955Z,0.50
2023-05-17T13:50:34.882Z,0.73
2023-05-17T13:53:39.446Z,0.30
2023-05-17T13:56:43.803Z,0.30
2023-05-17T13:59:48.527Z,0.28
2023-05-17T14:02:52.966Z,0.28
2023-05-17T14:05:57.744Z,0.45
2023-05-17T14:09:02.312Z,0.10
2023-05-17T14:12:07.126Z,0.40
2023-05-17T14:15:11.760Z,0.22
2023-05-17T14:18:16.282Z,0.30
2023-05-17T14:21:20.575Z,0.40
2023-05-17T14:27:29.460Z,0.30
2023-05-17T14:30:33.878Z,0.22
2023-05-17T14:33:38.407Z,0.20
2023-05-17T14:39:58.436Z,0.35
2023-05-17T14:43:10.089Z,0.52
2023-05-17T14:46:17.587Z,0.60
2023-05-17T14:49:22.426Z,0.20
2023-05-17T14:52:27.503Z,0.20
2023-05-17T14:55:32.203Z,0.20
2023-05-17T14:58:37.145Z,0.20
2023-05-17T15:01:42.260Z,0.40
2023-05-17T15:04:47.531Z,0.20
2023-05-17T15:07:52.593Z,0.30
2023-05-17T15:10:57.937Z,0.20
2023-05-17T15:14:02.607Z,0.30
2023-05-17T15:17:07.152Z,0.50
2023-05-17T15:20:11.836Z,0.22
2023-05-17T15:23:16.246Z,0.45
2023-05-17T15:26:21.639Z,0.30
2023-05-17T15:29:26.066Z,0.68
2023-05-17T15:32:30.415Z,0.30
2023-05-17T15:35:34.525Z,0.43
2023-05-17T15:38:38.924Z,0.25
2023-05-17T15:41:45.533Z,0.30
2023-05-17T15:44:49.945Z,0.10
2023-05-17T15:47:56.630Z,1.05
2023-05-17T15:51:01.291Z,0.40
2023-05-17T15:54:06.012Z,0.20
2023-05-17T15:57:10.126Z,0.25
2023-05-17T16:00:14.695Z,0.40
2023-05-17T16:03:19.250Z,0.30
2023-05-17T16:06:23.656Z,0.45
2023-05-17T16:09:28.311Z,0.20
2023-05-17T16:12:32.820Z,0.52
2023-05-17T16:15:37.083Z,0.30
2023-05-17T16:18:41.712Z,0.30
2023-05-17T16:21:49.812Z,0.22
2023-05-17T16:24:55.247Z,0.10
2023-05-17T16:28:00.082Z,0.20
2023-05-17T16:31:05.813Z,0.22
2023-05-17T16:34:11.068Z,0.40
2023-05-17T16:37:15.771Z,0.40
2023-05-17T16:40:19.889Z,0.40
2023-05-17T16:43:24.489Z,0.25
2023-05-17T16:46:28.876Z,0.45
2023-05-17T16:49:33.415Z,0.28
2023-05-17T16:52:37.520Z,0.38
2023-05-17T16:55:42.282Z,0.43
2023-05-17T16:58:47.170Z,0.15
2023-05-17T17:01:51.815Z,0.60
2023-05-17T17:04:56.376Z,0.73
2023-05-17T17:08:01.158Z,0.30
2023-05-17T17:11:05.692Z,0.40
2023-05-17T17:14:10.947Z,0.38
2023-05-17T17:17:15.660Z,0.70
2023-05-17T17:20:20.725Z,0.30
2023-05-17T17:23:25.110Z,0.20
2023-05-17T17:29:34.401Z,0.20
2023-05-17T17:32:38.832Z,0.40
2023-05-17T17:35:43.784Z,0.43
2023-05-17T17:38:48.126Z,0.25
2023-05-17T17:41:52.553Z,0.70
2023-05-17T17:44:56.869Z,0.10
2023-05-17T17:48:01.316Z,0.32
2023-05-17T17:51:05.804Z,0.22
2023-05-17T17:54:10.370Z,0.30
2023-05-17T17:57:14.702Z,0.85
2023-05-17T18:00:19.141Z,0.40
2023-05-17T18:03:23.709Z,2.08
2023-05-17T18:09:32.964Z,0.15
2023-05-17T18:12:37.274Z,0.35
2023-05-17T18:15:41.383Z,0.30
2023-05-17T18:18:45.638Z,0.20
2023-05-17T18:21:50.768Z,0.50
2023-05-17T18:24:55.451Z,0.20
2023-05-17T18:27:59.900Z,0.32
2023-05-17T18:31:04.105Z,0.55
2023-05-17T18:34:08.889Z,0.30
2023-05-17T18:37:13.374Z,0.20
2023-05-17T18:40:18.044Z,0.10
2023-05-17T18:43:22.443Z,0.75
2023-05-17T18:46:27.315Z,0.20
2023-05-17T18:49:31.588Z,0.63
2023-05-17T18:52:35.853Z,0.22
2023-05-17T18:55:41.190Z,0.28
2023-05-17T18:58:46.378Z,0.25
2023-05-17T19:01:51.010Z,0.30
2023-05-17T19:04:55.661Z,0.30
2023-05-17T19:07:59.853Z,0.30
2023-05-17T19:11:06.707Z,0.20
2023-05-17T19:14:11.414Z,0.57
2023-05-17T19:17:16.112Z,0.40
2023-05-17T19:20:20.838Z,0.85
2023-05-17T19:23:25.348Z,0.30
2023-05-17T19:26:29.621Z,0.25
2023-05-17T19:29:34.081Z,0.10
2023-05-17T19:32:38.641Z,0.30
2023-05-17T19:35:43.315Z,0.43
2023-05-17T19:38:49.364Z,0.30
2023-05-17T19:41:56.326Z,0.52
2023-05-17T19:48:07.960Z,0.30
2023-05-17T19:51:12.593Z,0.20
2023-05-17T19:54:17.173Z,0.52
2023-05-17T19:57:21.489Z,0.05
2023-05-17T20:00:26.136Z,0.20
2023-05-17T20:03:30.813Z,0.50
2023-05-17T20:06:35.250Z,0.47
2023-05-17T20:09:39.812Z,0.30
2023-05-17T20:12:44.438Z,0.30
2023-05-17T20:15:48.871Z,0.52
2023-05-17T20:18:53.596Z,0.90
2023-05-17T20:25:02.782Z,0.40
2023-05-17T20:28:06.982Z,0.30
2023-05-17T20:31:12.096Z,0.30
2023-05-17T20:37:21.078Z,0.32
2023-05-17T20:40:25.441Z,0.50
2023-05-17T20:43:29.921Z,0.52
2023-05-17T20:46:35.304Z,0.10
2023-05-17T20:49:39.921Z,0.50
2023-05-17T20:52:44.232Z,1.17
2023-05-17T20:55:49.377Z,0.30
2023-05-17T20:58:53.561Z,0.30
2023-05-17T21:01:58.235Z,0.10
2023-05-17T21:05:04.809Z,0.57
2023-05-17T21:08:12.766Z,1.10
2023-05-17T21:11:21.198Z,0.57
2023-05-17T21:14:25.862Z,1.48
2023-05-17T21:17:30.410Z,1.38
2023-05-17T21:20:34.625Z,2.50
2023-05-17T21:23:39.069Z,1.77
2023-05-17T21:26:43.924Z,2.08
2023-05-17T21:29:48.409Z,2.28
2023-05-17T21:32:52.833Z,1.42
2023-05-17T21:35:57.288Z,2.75
2023-05-17T21:39:01.628Z,1.25
2023-05-17T21:42:06.390Z,1.52
2023-05-17T21:45:12.842Z,2.33
2023-05-17T21:48:17.707Z,2.53
2023-05-17T21:51:22.287Z,1.33
2023-05-17T21:54:26.607Z,2.53
2023-05-17T21:57:32.936Z,2.20
2023-05-17T22:00:37.496Z,1.98
2023-05-17T22:06:46.712Z,2.30
2023-05-17T22:09:51.200Z,1.60
2023-05-17T22:12:55.929Z,2.05
2023-05-17T22:16:00.475Z,2.80
2023-05-17T22:19:05.845Z,2.28
2023-05-17T22:22:10.798Z,1.85
2023-05-17T22:28:22.087Z,2.45
2023-05-17T22:31:26.724Z,2.70
2023-05-17T22:34:31.906Z,2.35
2023-05-17T22:37:37.437Z,2.28
2023-05-17T22:40:41.857Z,1.90
2023-05-17T22:43:46.257Z,2.70
2023-05-17T22:46:50.725Z,2.47
2023-05-17T22:49:54.990Z,1.65
2023-05-17T22:53:00.032Z,2.70
2023-05-17T22:59:09.139Z,2.00
2023-05-17T23:02:13.513Z,1.13
2023-05-17T23:05:18.705Z,1.98
2023-05-17T23:11:28.366Z,1.73
2023-05-17T23:14:36.692Z,2.22
2023-05-17T23:17:41.212Z,2.15
2023-05-17T23:20:46.366Z,3.20
2023-05-17T23:26:58.713Z,1.95
2023-05-17T23:30:04.428Z,4.88
2023-05-17T23:33:09.186Z,2.13
2023-05-17T23:36:13.577Z,1.73
2023-05-17T23:39:17.989Z,2.00
2023-05-17T23:42:22.876Z,2.33
2023-05-17T23:48:34.249Z,2.28
2023-05-17T23:51:39.029Z,2.15
2023-05-17T23:54:43.270Z,2.17
2023-05-17T23:57:47.737Z,2.45
